NWS Home NWS Lubbock West Texas Mesonet Latest Conditions as of 1037 AM, Tue Jul 17, 2018

Latest   N   C   S   Daily Sum   3hrΔ   24hrΔ   Soil Data 
Site Map   24hr Precip   72hr Precip   Google Plot


Station Time of Last Temp Dew Pt. RH Wind Direction Wind Speed Wind Gust Max Wind Max Temp Min Temp Max RH Min RH Altimeter 1HR Rain Today's Rain Solar Rad RFTI
Abernathy 5ENE  10:30 AM 87 57 37% SW1520 20 mph 227° @ 0945 AM 88 69 77 37 30.18" 0 0 636 0
Adrian 6WSW  10:30 AM 85 57 38% SW810 20 mph 198° @ 0305 AM 85 69 67 38 30.22" 0 0 627 0
Aiken 3WSW  10:30 AM 89 61 39% SW1316 19 mph 239° @ 1013 AM 89 66 82 38 30.18" 0 0 691 0
Amarillo 15NNW   10:30 AM 88 62 41% SW68 16 mph 171° @ 0115 AM 88 69 90 41 30.14" 0 0 619 0
Amarillo 7SSE  10:30 AM 86 63 47% SW79 12 mph 245° @ 0903 AM 86 65 92 46 30.18" 0 0 650 0
Amarillo 9NNE  10:30 AM 89 61 40% SW69 12 mph 226° @ 1016 AM 89 69 80 39 30.14" 0 0 576 0
Amherst 1NE  10:30 AM 84 59 46% SW914 14 mph 214° @ 1030 AM 84 69 86 46 30.19" 0 0 621 0
Andrews 2E  10:30 AM 85 54 35% S812 20 mph 179° @ 0855 AM 85 73 53 35 30.18" 0 0 598 0
Anton 6SSW  10:30 AM 86 58 40% SW1419 23 mph 211° @ 0955 AM 86 68 68 40 30.18" 0 0 641 0
Aspermont 3NE  10:30 AM 90 60 38% SW1720 25 mph 224° @ 0930 AM 90 76 53 38 30.09" 0 0 630 0
Big Bend NP - Persimmon Gap  10:30 AM 82 62 50% NE79 16 mph 15° @ 1216 AM 82 71 71 50 30.15" 0 0 618 0
Big Lake 1WNW  10:30 AM 86 62 46% S1316 21 mph 160° @ 0845 AM 86 72 65 43 30.16" 0 0 668 0
Bootleg 11WNW  10:30 AM 87 56 35% SW1316 17 mph 247° @ 1029 AM 87 65 76 35 30.24" 0 0 604 0
Boys Ranch 1WSW  10:30 AM 86 62 44% E23 8 mph 348° @ 0400 AM 86 69 92 44 30.14" 0 0 629 0
Brownfield 2S  10:30 AM 85 55 37% SW1114 19 mph 208° @ 0930 AM 85 70 60 37 30.18" 0 0 656 0
Canadian 6E  10:30 AM 89 65 45% S24 11 mph 83° @ 0119 AM 89 70 89 45 30.06" 0 0 672 0
Caprock Canyons State Park  10:30 AM 92 57 31% SW1822 29 mph 236° @ 0631 AM 92 75 64 31 30.11" 0 0 599 0
Childress 2NNE  10:30 AM 92 58 34% SW1319 20 mph 234° @ 1025 AM 92 75 66 34 30.07" 0 0 655 0
Clarendon 2WSW  10:30 AM 89 58 35% W710 13 mph 243° @ 1010 AM 89 68 85 35 30.12" 0 0 607 0
Claude 12SW  10:30 AM 84 63 50% SW56 14 mph 233° @ 0750 AM 84 75 64 48 30.16" 0 0 654 0
Clyde 2WNW  10:30 AM 88 61 41% SW1619 24 mph 221° @ 0939 AM 88 75 66 41 30.12" 0 0 660 0
Colorado City 5NW  10:30 AM 89 61 40% S1316 18 mph 202° @ 0945 AM 89 72 66 40 30.14" 0 0 630 0
Coyanosa 2N  10:30 AM 85 64 50% SE810 12 mph 121° @ 0820 AM 85 68 89 49 30.13" 0 0 582 0
Crowell 1E  10:30 AM 94 60 33% SW1621 26 mph 246° @ 1002 AM 94 75 68 33 30.05" 0 0 652 0
Dell City  10:30 AM 76 67 75% E22 8 mph 283° @ 0140 AM 76 63 100 75 30.22" 0.02 0.02 615 0
Denver City 7WNW  10:30 AM 82 55 41% S1115 16 mph 195° @ 0200 AM 82 65 75 41 30.19" 0 0 628 0
Dimmitt 2NE  10:30 AM 86 58 40% SW1114 16 mph 235° @ 1015 AM 86 70 74 40 30.19" 0 0 646 0
Dora NM 2SW  10:30 AM 84 55 38% W914 17 mph 229° @ 0935 AM 85 66 73 38 30.23" 0 0 601 0
Dozier 3W  10:30 AM 92 64 39% W68 10 mph 244° @ 1026 AM 92 72 75 39 30.09" 0 0 661 0
Earth 9WSW  10:30 AM 86 61 44% SW1013 16 mph 202° @ 0736 AM 86 65 84 41 30.20" 0 0 645 0
Endee NM 2SW  10:30 AM 85 58 39% SW45 17 mph 224° @ 0238 AM 85 64 84 39 30.19" 0 0 626 0
Estelline 3SSE  10:30 AM 94 61 34% SW79 20 mph 237° @ 0948 AM 94 70 82 33 30.06" 0 0 683 0
Floydada 2NNE  10:30 AM 88 58 38% SW1419 22 mph 222° @ 0950 AM 88 70 66 38 30.16" 0 0 656 0
Fluvanna 3WNW  10:30 AM 85 53 35% SW1419 22 mph 221° @ 0955 AM 85 73 49 34 30.15" 0 0 579 0
Fort Chadbourne  10:30 AM 87 64 47% S810 17 mph 225° @ 1005 AM 87 69 74 37 30.13" 0 0 641 0
Fort Lancaster  10:30 AM 84 65 53% SE810 18 mph 137° @ 0501 AM 85 77 58 38 30.13" 0 0 606 0
Fort Lewis CO  10:30 AM 68 56 66% S24 11 mph 79° @ 0149 AM 69 53 92 61 30.48" 0 0 590 0
Fort McKavett  10:30 AM 87 60 41% S912 16 mph 164° @ 0248 AM 87 71 89 41 30.15" 0 0 647 0
Friona 2NE  10:30 AM 86 59 42% SW1216 16 mph 230° @ 1020 AM 86 66 87 42 30.20" 0 0 679 0
Fritch 1WNW  10:30 AM 86 61 44% SW58 15 mph 218° @ 0948 AM 86 71 84 44 30.14" 0 0 711 0
Gail 2ESE  10:30 AM 86 57 39% SW913 19 mph 208° @ 0825 AM 86 71 61 39 30.14" 0 0 617 0
Goodlett 3W  10:30 AM 93 58 32% SW1216 18 mph 243° @ 1020 AM 93 73 66 32 30.05" 0 0 586 0
Goodnight  10:30 AM 92 60 35% W1011 14 mph 249° @ 1029 AM 92 70 79 35 30.15" 0 0 641 0
Graham 5SSW  10:30 AM 85 54 36% SW1318 18 mph 191° @ 0915 AM 85 74 53 36 30.16" 0 0 612 0
Guadalupe Mtns Natl Park  10:30 AM 75 58 58% S67 15 mph 295° @ 0716 AM 77 65 72 41 30.32" 0 0 648 0
Guthrie 10WSW  10:30 AM 89 57 36% SW1419 22 mph 231° @ 0945 AM 89 72 89 36 30.09" 0 0 628 0
Happy 1E  10:30 AM 88 59 38% W1213 15 mph 233° @ 0903 AM 88 67 79 38 30.18" 0 0 658 0
Hart 3N  10:30 AM 85 60 44% SW812 12 mph 210° @ 1015 AM 85 66 84 44 30.19" 0 0 653 0
Haskell 1NW  10:30 AM 88 57 36% SW1722 26 mph 224° @ 0955 AM 88 74 62 36 30.08" 0 0 609 0
Hereford 2NW  10:30 AM 86 55 37% W1013 13 mph 179° @ 1210 AM 86 67 77 37 30.19" 0 0 657 0
Hobbs NM 5NW  10:30 AM 82 55 40% S66 16 mph 174° @ 0142 AM 82 68 65 36 30.23" 0 0 589 0
Jayton 1SSE  10:30 AM 89 54 32% W1519 23 mph 225° @ 0950 AM 89 75 51 32 30.10" 0 0 633 0
Junction 1SSW  10:30 AM 85 64 50% S710 18 mph 150° @ 1205 AM 85 71 92 44 30.14" 0 0 545 0
Knox City 3NW  10:30 AM 93 59 33% SW1419 23 mph 226° @ 1000 AM 93 73 68 33 30.07" 0 0 620 0
Lake Alan Henry 1NW  10:30 AM 88 58 36% SW1114 22 mph 233° @ 1015 AM 88 76 51 36 30.12" 0 0 644 0
Lamesa 2SE  10:30 AM 84 58 43% SW1116 17 mph 203° @ 0945 AM 84 67 73 43 30.18" 0 0 668 0
Lesley 2S  10:30 AM 89 65 46% W56 10 mph 293° @ 1005 AM 89 71 95 45 30.08" 0 0 676 0
Levelland 4S  10:30 AM 84 58 43% SW1014 19 mph 210° @ 1000 AM 84 67 78 41 30.19" 0 0 630 0
Lomax 1SSE  10:30 AM 87 58 38% S1316 23 mph 192° @ 0903 AM 87 73 55 36 30.15" 0 0 668 0
Lubbock 3WNW TTU  10:30 AM 86 57 38% SW1117 20 mph 209° @ 0920 AM 86 75 50 38 30.17" 0 0 637 0
McCamey 1SSW  10:30 AM 85 60 44% S911 17 mph 145° @ 0957 AM 85 75 54 41 30.15" 0 0 568 0
McLean 1E  10:30 AM 91 55 31% W1013 14 mph 265° @ 1020 AM 91 72 66 31 30.10" 0 0 744 0
Memphis 1NE  10:30 AM 90 61 40% SW813 15 mph 239° @ 1020 AM 90 71 90 40 30.07" 0 0 623 0
Menard 2NW   10:30 AM 86 60 41% S79 14 mph 199° @ 0916 AM 87 69 87 40 30.14" 0 0 616 0
Mertzon 3NNE  10:30 AM 88 64 46% S1115 21 mph 196° @ 0849 AM 88 74 70 39 30.14" 0 0 600 0
Morton 1ENE  10:30 AM 87 55 36% SW1520 20 mph 206° @ 1030 AM 87 70 67 36 30.20" 0 0 625 0
Muleshoe 2SSW  10:30 AM 83 63 54% W35 13 mph 143° @ 0135 AM 83 65 92 54 30.19" 0 0 640 0
New Home  10:30 AM 85 59 41% SW1214 20 mph 216° @ 0923 AM 85 70 63 41 30.19" 0 0 651 0
Northfield 1S  10:30 AM 92 59 34% W1116 18 mph 240° @ 1025 AM 92 70 86 34 30.07" 0 0 598 0
O'Donnell 1N  10:30 AM 83 54 38% SW1417 19 mph 201° @ 1010 AM 83 69 70 38 30.17" 0 0 577 0
Odell 4ENE  10:30 AM 94 60 32% SW1519 22 mph 249° @ 0955 AM 94 76 68 32 30.04" 0 0 565 0
Olton 6S  10:30 AM 84 59 43% SW1113 16 mph 212° @ 1005 AM 84 67 75 43 30.18" 0 0 611 0
Paducah 10SW  10:30 AM 93 57 31% SW1622 24 mph 232° @ 0945 AM 93 75 66 31 30.08" 0 0 610 0
Palo Duro 4E (JA Ranch)  10:30 AM 90 62 40% SW89 13 mph 251° @ 0954 AM 90 68 92 40 30.11" 0 0 646 0
Palo Duro Canyon SP Floor  10:30 AM 87 67 51% NE12 9 mph 349° @ 0746 AM 87 68 98 49 30.12" 0 0 606 0
Palo Duro Canyon State Park Rim  10:30 AM 86 64 47% SW46 12 mph 192° @ 0541 AM 87 71 74 46 30.18" 0 0 648 0
Pampa 2E  10:30 AM 86 65 50% SW710 10 mph 250° @ 0930 AM 86 67 91 50 30.14" 0 0 688 0
Panhandle 1SSW  10:30 AM 84 65 53% SW67 11 mph 250° @ 1010 AM 84 68 92 52 30.17" 0 0 656 0
Plains 3N  10:30 AM 85 56 40% S1320 20 mph 206° @ 1005 AM 85 66 70 40 30.20" 0 0 562 0
Plainview 1S  09:55 AM 83 61 49% SW1117 18 mph 233° @ 0915 AM 83 70 77 49 30.16" 0 0 505 0
Post 1NE  10:30 AM 87 56 35% SW1114 19 mph 219° @ 1000 AM 87 76 52 35 30.14" 0 0 631 0
Ralls 1SE  10:30 AM 86 56 36% SW1620 21 mph 219° @ 0945 AM 87 70 66 36 30.17" 0 0 649 0
Reese Center  10:30 AM 85 55 37% S1417 21 mph 211° @ 0950 AM 85 69 59 37 30.18" 0 0 650 0
Roaring Springs 3N  10:30 AM 89 61 41% SW1420 24 mph 228° @ 0925 AM 89 73 76 41 30.12" 0 0 578 0
Rotan 5W  10:30 AM 87 62 43% SW1824 30 mph 212° @ 0910 AM 87 75 55 40 30.12" 0 0 667 0
San Angelo 7NW  10:30 AM 86 61 44% S811 14 mph 200° @ 1020 AM 86 71 76 38 30.12" 0 0 589 0
Seagraves 1SW  10:30 AM 85 56 39% SW1012 17 mph 200° @ 0935 AM 85 66 72 39 30.19" 0 0 603 0
Seminole 2NNE  10:30 AM 83 54 39% S711 19 mph 192° @ 0135 AM 83 68 66 39 30.19" 0 0 645 0
Seymour 3NW  10:30 AM 91 60 37% SW1722 28 mph 222° @ 0945 AM 91 76 59 37 30.06" 0 0 661 0
Sierra Blanca 1SSE  10:30 AM 77 60 56% SE45 8 mph 6° @ 0156 AM 77 63 88 56 30.27" 0 0 629 0
Silverton 7ESE  10:30 AM 90 57 34% SW1722 23 mph 245° @ 1010 AM 90 67 75 34 30.15" 0 0 659 0
Slaton 2NE  10:30 AM 85 56 37% SW1519 23 mph 212° @ 0940 AM 85 73 59 37 30.17" 0 0 586 0
Snyder 3E  10:30 AM 86 60 44% SW1319 19 mph 214° @ 1030 AM 86 72 64 44 30.14" 0 0 588 0
Snyder 3SSW  10:30 AM 86 61 44% SW1115 19 mph 212° @ 1010 AM 86 73 58 44 30.14" 0 0 636 0
Spur 1W  10:30 AM 88 54 33% SW817 20 mph 235° @ 0915 AM 88 71 77 33 30.11" 0 0 594 0
St. Lawrence 5SW  10:30 AM 86 59 42% S1216 22 mph 180° @ 0845 AM 86 69 57 39 30.15" 0 0 620 0
Stamford 5ESE  10:30 AM 89 65 45% SW1317 17 mph 221° @ 0923 AM 89 74 67 45 30.09" 0 0 643 0
Sterling City 4WSW  10:30 AM 87 63 44% S910 21 mph 172° @ 0855 AM 87 73 61 34 30.15" 0 0 545 0
Stinnett 1NNW  10:30 AM 85 62 47% SW1013 17 mph 199° @ 1023 AM 87 70 76 44 30.15" 0 0 474 0
Sundown 8WSW  10:30 AM 86 56 37% SW1118 20 mph 204° @ 0955 AM 86 64 76 37 30.19" 0 0 595 0
Sweetwater 11SW   10:30 AM 85 64 50% SW1113 21 mph 202° @ 0911 AM 85 73 64 41 30.16" 0 0 645 0
Tahoka 3NNE  10:30 AM 86 56 35% SW1014 19 mph 205° @ 0938 AM 86 69 66 35 30.17" 0 0 638 0
Tarzan 2WNW  10:30 AM 85 59 42% S1112 18 mph 207° @ 0948 AM 85 72 57 41 30.17" 0 0 665 0
Tatum NM 2SW  10:30 AM 87 53 33% S1318 20 mph 199° @ 0950 AM 87 64 71 33 30.22" 0 0 628 0
Throckmorton 1SW  10:30 AM 90 64 42% SW1520 25 mph 232° @ 0918 AM 90 77 58 41 30.07" 0 0 655 0
Tulia 2ENE  10:30 AM 88 59 39% SW1215 18 mph 232° @ 0815 AM 88 71 70 39 30.17" 0 0 579 0
Turkey 2WSW  10:30 AM 93 58 32% SW1923 25 mph 216° @ 0925 AM 93 76 64 32 30.09" 0 0 596 0
Umbarger 3NNE  10:30 AM 87 60 41% W1013 15 mph 268° @ 1020 AM 87 66 83 41 30.19" 0 0 651 0
Van Horn 3ENE  10:30 AM 77 63 61% S45 8 mph 229° @ 0753 AM 77 64 98 61 30.23" 0 0.01 629 0
Vigo Park  10:30 AM 89 60 37% SW1011 15 mph 234° @ 0842 AM 89 66 85 36 30.17" 0 0 602 0
Wall 2E  10:30 AM 87 61 40% SW1012 19 mph 164° @ 0106 AM 88 76 70 38 30.13" 0 0 663 0
Weinert 2NNE  10:30 AM 91 62 39% SW810 25 mph 229° @ 0927 AM 91 75 60 38 30.08" 0 0 655 0
Welch  10:30 AM 85 59 42% SW1215 20 mph 198° @ 0923 AM 85 69 66 40 30.19" 0 0 646 0
White River Lake 6NW  10:30 AM 86 56 38% SW1217 18 mph 216° @ 1025 AM 86 74 59 38 30.14" 0 0 623 0
Wolfforth 6SSW  10:30 AM 85 57 41% SW1317 19 mph 200° @ 0935 AM 85 67 68 41 30.18" 0 0 639 0

West Texas Mesonet Home   Site Map/Menu  NWS Lubbock Soil Data  Daily Summary Page  24hr Precip  72hr Precip  Google Plot